createdAt,value
2022-08-24T00:02:21.252Z,27.54
2022-08-24T00:07:27.396Z,26.16
2022-08-24T00:12:31.593Z,25.32
2022-08-24T00:17:34.978Z,25.81
2022-08-24T00:22:39.145Z,27.84
2022-08-24T00:27:42.451Z,27.96
2022-08-24T00:32:47.060Z,26.51
2022-08-24T00:37:51.896Z,25.59
2022-08-24T00:42:56.601Z,26.00
2022-08-24T00:48:03.595Z,27.97
2022-08-24T00:53:13.717Z,27.71
2022-08-24T00:58:22.219Z,26.41
2022-08-24T01:03:28.057Z,25.62
2022-08-24T01:08:31.074Z,26.07
2022-08-24T01:13:35.028Z,28.04
2022-08-24T01:18:51.695Z,27.67
2022-08-24T01:24:00.869Z,26.30
2022-08-24T01:29:11.751Z,25.52
2022-08-24T01:34:14.963Z,26.02
2022-08-24T01:39:29.387Z,28.04
2022-08-24T01:44:35.012Z,27.93
2022-08-24T01:49:41.781Z,26.60
2022-08-24T01:54:45.928Z,25.77
2022-08-24T01:59:48.969Z,26.17
2022-08-24T02:04:52.152Z,28.16
2022-08-24T02:09:55.469Z,27.78
2022-08-24T02:15:01.038Z,26.51
2022-08-24T02:20:05.580Z,25.73
2022-08-24T02:25:08.847Z,26.14
2022-08-24T02:30:18.014Z,28.13
2022-08-24T02:35:22.564Z,27.73
2022-08-24T02:40:25.949Z,26.43
2022-08-24T02:45:29.254Z,25.61
2022-08-24T02:50:32.278Z,26.03
2022-08-24T02:55:36.488Z,28.01
2022-08-24T03:00:40.768Z,27.94
2022-08-24T03:05:43.742Z,26.58
2022-08-24T03:10:46.638Z,25.71
2022-08-24T03:15:50.084Z,26.10
2022-08-24T03:20:57.962Z,28.07
2022-08-24T03:26:02.250Z,27.82
2022-08-24T03:31:06.023Z,26.45
2022-08-24T03:36:13.949Z,25.58
2022-08-24T03:41:17.787Z,26.02
2022-08-24T03:46:27.378Z,27.99
2022-08-24T03:51:30.793Z,28.17
2022-08-24T03:56:34.333Z,26.70
2022-08-24T04:01:38.621Z,25.71
2022-08-24T04:06:44.615Z,26.05
2022-08-24T04:11:47.909Z,28.02
2022-08-24T04:16:57.581Z,27.97
2022-08-24T04:22:05.997Z,26.50
2022-08-24T04:27:09.087Z,25.57
2022-08-24T04:32:15.725Z,25.94
2022-08-24T04:37:18.545Z,27.93
2022-08-24T04:42:31.723Z,28.07
2022-08-24T04:47:37.213Z,26.71
2022-08-24T04:52:40.540Z,25.79
2022-08-24T04:57:43.681Z,26.14
2022-08-24T05:02:47.202Z,28.05
2022-08-24T05:07:53.470Z,27.81
2022-08-24T05:12:59.673Z,26.44
2022-08-24T05:18:03.205Z,25.59
2022-08-24T05:23:06.259Z,26.02
2022-08-24T05:28:09.804Z,28.02
2022-08-24T05:33:14.036Z,28.21
2022-08-24T05:38:16.988Z,26.85
2022-08-24T05:43:19.856Z,25.96
2022-08-24T05:48:24.024Z,26.31
2022-08-24T05:53:36.662Z,28.26
2022-08-24T05:58:40.834Z,27.87
2022-08-24T06:03:44.777Z,26.66
2022-08-24T06:08:52.072Z,25.91
2022-08-24T06:13:59.930Z,26.37
2022-08-24T06:19:06.222Z,28.38
2022-08-24T06:24:09.795Z,28.05
2022-08-24T06:29:13.034Z,26.76
2022-08-24T06:34:20.259Z,26.00
2022-08-24T06:39:24.230Z,26.45
2022-08-24T06:44:29.759Z,28.43
2022-08-24T06:49:39.859Z,27.84
2022-08-24T06:54:43.230Z,26.74
2022-08-24T06:59:46.469Z,26.09
2022-08-24T07:04:49.878Z,26.55
2022-08-24T07:10:11.651Z,28.56
2022-08-24T07:15:16.306Z,27.96
2022-08-24T07:20:22.057Z,26.89
2022-08-24T07:25:46.201Z,26.22
2022-08-24T07:30:52.330Z,26.76
2022-08-24T07:35:56.272Z,28.67
2022-08-24T07:41:38.214Z,28.08
2022-08-24T07:46:24.092Z,26.94
2022-08-24T07:51:27.548Z,26.32
2022-08-24T07:56:31.923Z,26.80
2022-08-24T08:01:37.749Z,28.68
2022-08-24T08:06:44.056Z,27.96
2022-08-24T08:11:47.188Z,27.00
2022-08-24T08:16:50.496Z,26.44
2022-08-24T08:22:12.945Z,26.03
2022-08-24T08:27:38.764Z,26.98
2022-08-24T08:32:41.848Z,28.36
2022-08-24T08:37:45.015Z,27.34
2022-08-24T08:43:10.638Z,26.66
2022-08-24T08:48:40.009Z,26.23
2022-08-24T08:54:20.928Z,27.08
2022-08-24T08:59:50.137Z,28.42
2022-08-24T09:05:00.356Z,27.37
2022-08-24T09:10:32.248Z,26.81
2022-08-24T09:15:38.142Z,26.41
2022-08-24T09:21:09.390Z,27.08
2022-08-24T09:26:29.955Z,28.54
2022-08-24T09:32:01.006Z,27.52
2022-08-24T09:37:09.986Z,26.86
2022-08-24T09:42:25.678Z,26.51
2022-08-24T09:47:56.592Z,27.27
2022-08-24T09:53:30.212Z,28.76
2022-08-24T09:58:50.586Z,27.80
2022-08-24T10:04:14.813Z,27.23
2022-08-24T10:09:39.153Z,26.85
2022-08-24T10:15:09.883Z,26.65
2022-08-24T10:20:35.777Z,27.61
2022-08-24T10:25:57.499Z,29.03
2022-08-24T10:31:12.467Z,28.01
2022-08-24T10:36:34.728Z,27.40
2022-08-24T10:42:11.499Z,27.05
2022-08-24T10:47:29.219Z,26.83
2022-08-24T10:52:54.164Z,27.74
2022-08-24T10:58:15.701Z,29.28
2022-08-24T11:03:27.660Z,28.37
2022-08-24T11:08:35.207Z,27.93
2022-08-24T11:13:52.500Z,27.73
2022-08-24T11:18:57.940Z,27.63
2022-08-24T11:24:07.205Z,27.51
2022-08-24T11:29:10.126Z,27.38
2022-08-24T11:34:33.742Z,27.39
2022-08-24T11:39:38.002Z,27.44
2022-08-24T11:44:51.039Z,27.35
2022-08-24T11:50:19.853Z,27.20
2022-08-24T11:55:32.410Z,27.07
2022-08-24T12:00:55.459Z,28.34
2022-08-24T12:06:33.939Z,30.18
2022-08-24T12:12:04.201Z,29.59
2022-08-24T12:17:23.268Z,29.25
2022-08-24T12:22:28.516Z,29.17
2022-08-24T12:27:37.848Z,29.20
2022-08-24T12:33:00.925Z,29.21
2022-08-24T12:38:25.732Z,29.10
2022-08-24T12:43:38.108Z,28.86
2022-08-24T12:48:43.920Z,28.62
2022-08-24T12:54:08.314Z,28.45
2022-08-24T12:59:26.268Z,28.30
2022-08-24T13:04:51.233Z,28.17
2022-08-24T13:09:57.137Z,28.02
2022-08-24T13:15:28.618Z,27.91
2022-08-24T13:20:37.459Z,27.82
2022-08-24T13:26:01.411Z,27.70
2022-08-24T13:31:22.383Z,27.58
2022-08-24T13:36:31.186Z,27.43
2022-08-24T13:41:55.662Z,27.29
2022-08-24T13:47:07.768Z,27.18
2022-08-24T13:52:22.526Z,27.12
2022-08-24T13:57:37.072Z,27.33
2022-08-24T14:03:12.261Z,27.78
2022-08-24T14:08:59.635Z,28.30
2022-08-24T14:14:03.426Z,28.82
2022-08-24T14:19:24.674Z,29.20
2022-08-24T14:24:46.291Z,29.50
2022-08-24T14:29:49.782Z,29.70
2022-08-24T14:35:16.120Z,29.84
2022-08-24T14:40:38.124Z,29.84
2022-08-24T14:45:56.449Z,29.76
2022-08-24T14:51:05.491Z,29.58
2022-08-24T14:56:08.493Z,29.37
2022-08-24T15:01:39.025Z,29.19
2022-08-24T15:06:58.893Z,29.00
2022-08-24T15:12:20.711Z,28.87
2022-08-24T15:17:48.286Z,28.81
2022-08-24T15:23:04.251Z,28.74
2022-08-24T15:28:14.985Z,28.67
2022-08-24T15:33:19.809Z,28.63
2022-08-24T15:38:31.643Z,28.57
2022-08-24T15:43:39.353Z,28.51
2022-08-24T15:48:47.940Z,28.45
2022-08-24T15:53:51.077Z,28.33
2022-08-24T15:58:54.147Z,28.03
2022-08-24T16:04:00.847Z,27.62
2022-08-24T16:09:22.474Z,27.24
2022-08-24T16:14:34.020Z,26.90
2022-08-24T16:19:38.368Z,26.64
2022-08-24T16:24:42.346Z,26.42
2022-08-24T16:29:50.305Z,26.24
2022-08-24T16:35:15.253Z,26.09
2022-08-24T16:40:19.362Z,25.96
2022-08-24T16:45:23.717Z,25.84
2022-08-24T16:50:27.198Z,25.76
2022-08-24T16:55:30.611Z,25.67
2022-08-24T17:00:33.798Z,25.58
2022-08-24T17:05:38.163Z,25.48
2022-08-24T17:10:43.999Z,25.39
2022-08-24T17:15:50.749Z,25.33
2022-08-24T17:20:56.441Z,25.31
2022-08-24T17:26:00.276Z,25.24
2022-08-24T17:31:03.466Z,26.10
2022-08-24T17:36:07.770Z,28.49
2022-08-24T17:41:18.621Z,29.05
2022-08-24T17:46:22.585Z,27.93
2022-08-24T17:51:25.607Z,27.16
2022-08-24T17:56:32.557Z,26.64
2022-08-24T18:01:38.509Z,26.28
2022-08-24T18:06:41.377Z,25.95
2022-08-24T18:11:44.392Z,25.63
2022-08-24T18:16:50.181Z,25.33
2022-08-24T18:21:57.429Z,25.07
2022-08-24T18:27:10.784Z,24.99
2022-08-24T18:32:14.162Z,27.03
2022-08-24T18:37:17.468Z,27.98
2022-08-24T18:42:27.471Z,26.74
2022-08-24T18:47:30.602Z,25.96
2022-08-24T18:52:35.041Z,25.48
2022-08-24T18:57:37.965Z,25.08
2022-08-24T19:02:41.956Z,25.66
2022-08-24T19:07:48.937Z,27.86
2022-08-24T19:12:57.861Z,28.10
2022-08-24T19:18:00.959Z,26.84
2022-08-24T19:23:10.920Z,26.08
2022-08-24T19:28:14.206Z,25.57
2022-08-24T19:33:27.162Z,25.16
2022-08-24T19:38:30.667Z,24.82
2022-08-24T19:43:33.661Z,25.51
2022-08-24T19:48:39.808Z,27.77
2022-08-24T19:53:43.182Z,27.89
2022-08-24T19:58:52.104Z,26.71
2022-08-24T20:03:55.092Z,25.96
2022-08-24T20:08:58.941Z,25.41
2022-08-24T20:14:02.870Z,24.98
2022-08-24T20:19:06.289Z,25.58
2022-08-24T20:24:11.448Z,27.76
2022-08-24T20:29:14.426Z,27.58
2022-08-24T20:34:19.156Z,26.44
2022-08-24T20:39:25.429Z,25.77
2022-08-24T20:44:28.313Z,25.27
2022-08-24T20:49:32.896Z,24.87
2022-08-24T20:54:39.620Z,25.51
2022-08-24T20:59:43.194Z,27.73
2022-08-24T21:04:46.112Z,27.97
2022-08-24T21:09:49.080Z,26.72
2022-08-24T21:14:56.265Z,25.92
2022-08-24T21:19:59.522Z,25.37
2022-08-24T21:25:06.915Z,24.92
2022-08-24T21:30:13.117Z,25.55
2022-08-24T21:35:16.127Z,27.71
2022-08-24T21:40:20.345Z,27.62
2022-08-24T21:45:24.210Z,26.38
2022-08-24T21:50:27.106Z,25.61
2022-08-24T21:55:30.019Z,25.05
2022-08-24T22:00:35.300Z,25.50
2022-08-24T22:05:38.281Z,27.61
2022-08-24T22:10:41.580Z,27.81
2022-08-24T22:15:45.081Z,26.48
2022-08-24T22:20:48.132Z,25.63
2022-08-24T22:25:53.571Z,25.05
2022-08-24T22:30:56.807Z,25.52
2022-08-24T22:35:59.693Z,27.58
2022-08-24T22:41:02.815Z,27.41
2022-08-24T22:46:05.674Z,26.14
2022-08-24T22:51:10.454Z,25.37
2022-08-24T22:56:25.036Z,24.82
2022-08-24T23:01:32.796Z,25.41
2022-08-24T23:06:35.825Z,27.55
2022-08-24T23:11:40.186Z,27.41
2022-08-24T23:16:45.132Z,26.11
2022-08-24T23:21:48.070Z,25.30
2022-08-24T23:26:51.352Z,24.73
2022-08-24T23:31:54.534Z,25.30
2022-08-24T23:36:57.448Z,27.41
2022-08-24T23:42:01.139Z,27.44
2022-08-24T23:47:04.338Z,26.08
2022-08-24T23:52:07.409Z,25.22
2022-08-24T23:57:10.484Z,24.64
